sensor_id;sensor_type;location;lat;lon;timestamp;P1;durP1;ratioP1;P2;durP2;ratioP2
41480;SDS011;27217;51.220;5.308;2023-12-20T00:01:37;0.00;;;0.00;;
41480;SDS011;27217;51.220;5.308;2023-12-20T00:04:06;0.00;;;0.00;;
41480;SDS011;27217;51.220;5.308;2023-12-20T00:06:31;0.10;;;0.10;;
41480;SDS011;27217;51.220;5.308;2023-12-20T00:08:57;0.85;;;0.85;;
41480;SDS011;27217;51.220;5.308;2023-12-20T00:11:23;1.92;;;1.75;;
41480;SDS011;27217;51.220;5.308;2023-12-20T00:13:49;4.95;;;2.28;;
41480;SDS011;27217;51.220;5.308;2023-12-20T00:16:15;0.47;;;0.47;;
41480;SDS011;27217;51.220;5.308;2023-12-20T00:18:41;0.00;;;0.00;;
41480;SDS011;27217;51.220;5.308;2023-12-20T00:21:06;0.00;;;0.00;;
41480;SDS011;27217;51.220;5.308;2023-12-20T00:23:32;0.00;;;0.00;;
41480;SDS011;27217;51.220;5.308;2023-12-20T00:25:58;2.72;;;2.08;;
41480;SDS011;27217;51.220;5.308;2023-12-20T00:28:24;0.00;;;0.00;;
41480;SDS011;27217;51.220;5.308;2023-12-20T00:30:49;0.10;;;0.10;;
41480;SDS011;27217;51.220;5.308;2023-12-20T00:33:15;0.00;;;0.00;;
41480;SDS011;27217;51.220;5.308;2023-12-20T00:35:41;0.08;;;0.08;;
41480;SDS011;27217;51.220;5.308;2023-12-20T00:38:15;0.00;;;0.00;;
41480;SDS011;27217;51.220;5.308;2023-12-20T00:40:44;0.00;;;0.00;;
41480;SDS011;27217;51.220;5.308;2023-12-20T00:43:09;4.45;;;1.55;;
41480;SDS011;27217;51.220;5.308;2023-12-20T00:45:35;0.00;;;0.00;;
41480;SDS011;27217;51.220;5.308;2023-12-20T00:48:05;0.00;;;0.00;;
41480;SDS011;27217;51.220;5.308;2023-12-20T00:50:36;0.30;;;0.30;;
41480;SDS011;27217;51.220;5.308;2023-12-20T00:53:02;0.28;;;0.28;;
41480;SDS011;27217;51.220;5.308;2023-12-20T00:55:28;0.00;;;0.00;;
41480;SDS011;27217;51.220;5.308;2023-12-20T00:57:54;0.63;;;0.63;;
41480;SDS011;27217;51.220;5.308;2023-12-20T01:00:19;0.98;;;0.57;;
41480;SDS011;27217;51.220;5.308;2023-12-20T01:02:46;0.08;;;0.08;;
41480;SDS011;27217;51.220;5.308;2023-12-20T01:05:14;0.00;;;0.00;;
41480;SDS011;27217;51.220;5.308;2023-12-20T01:07:39;3.55;;;2.25;;
41480;SDS011;27217;51.220;5.308;2023-12-20T01:10:05;0.10;;;0.10;;
41480;SDS011;27217;51.220;5.308;2023-12-20T01:12:31;0.00;;;0.00;;
41480;SDS011;27217;51.220;5.308;2023-12-20T01:14:57;0.10;;;0.10;;
41480;SDS011;27217;51.220;5.308;2023-12-20T01:17:23;0.00;;;0.00;;
41480;SDS011;27217;51.220;5.308;2023-12-20T01:19:49;0.00;;;0.00;;
41480;SDS011;27217;51.220;5.308;2023-12-20T01:22:15;0.20;;;0.20;;
41480;SDS011;27217;51.220;5.308;2023-12-20T01:24:40;0.10;;;0.10;;
41480;SDS011;27217;51.220;5.308;2023-12-20T01:27:09;0.35;;;0.35;;
41480;SDS011;27217;51.220;5.308;2023-12-20T01:29:34;0.10;;;0.10;;
41480;SDS011;27217;51.220;5.308;2023-12-20T01:32:00;2.83;;;1.20;;
41480;SDS011;27217;51.220;5.308;2023-12-20T01:34:29;0.10;;;0.10;;
41480;SDS011;27217;51.220;5.308;2023-12-20T01:36:54;0.00;;;0.00;;
41480;SDS011;27217;51.220;5.308;2023-12-20T01:39:20;0.22;;;0.22;;
41480;SDS011;27217;51.220;5.308;2023-12-20T01:41:46;0.10;;;0.10;;
41480;SDS011;27217;51.220;5.308;2023-12-20T01:44:11;0.15;;;0.15;;
41480;SDS011;27217;51.220;5.308;2023-12-20T01:46:37;0.00;;;0.00;;
41480;SDS011;27217;51.220;5.308;2023-12-20T01:49:03;0.32;;;0.32;;
41480;SDS011;27217;51.220;5.308;2023-12-20T01:51:29;0.00;;;0.00;;
41480;SDS011;27217;51.220;5.308;2023-12-20T01:53:56;5.38;;;2.35;;
41480;SDS011;27217;51.220;5.308;2023-12-20T01:56:24;0.05;;;0.05;;
41480;SDS011;27217;51.220;5.308;2023-12-20T01:58:52;26.88;;;2.92;;
41480;SDS011;27217;51.220;5.308;2023-12-20T02:01:18;0.00;;;0.00;;
41480;SDS011;27217;51.220;5.308;2023-12-20T02:03:44;0.00;;;0.00;;
41480;SDS011;27217;51.220;5.308;2023-12-20T02:06:10;0.00;;;0.00;;
41480;SDS011;27217;51.220;5.308;2023-12-20T02:08:36;0.00;;;0.00;;
41480;SDS011;27217;51.220;5.308;2023-12-20T02:11:05;7.53;;;3.00;;
41480;SDS011;27217;51.220;5.308;2023-12-20T02:13:31;0.00;;;0.00;;
41480;SDS011;27217;51.220;5.308;2023-12-20T02:15:58;0.20;;;0.20;;
41480;SDS011;27217;51.220;5.308;2023-12-20T02:18:29;0.85;;;0.85;;
41480;SDS011;27217;51.220;5.308;2023-12-20T02:20:55;0.63;;;0.63;;
41480;SDS011;27217;51.220;5.308;2023-12-20T02:23:21;0.75;;;0.75;;
41480;SDS011;27217;51.220;5.308;2023-12-20T02:25:47;0.00;;;0.00;;
41480;SDS011;27217;51.220;5.308;2023-12-20T02:28:12;0.08;;;0.08;;
41480;SDS011;27217;51.220;5.308;2023-12-20T02:30:39;0.10;;;0.10;;
41480;SDS011;27217;51.220;5.308;2023-12-20T02:33:06;0.10;;;0.10;;
41480;SDS011;27217;51.220;5.308;2023-12-20T02:35:36;0.10;;;0.10;;
41480;SDS011;27217;51.220;5.308;2023-12-20T02:38:04;22.88;;;3.78;;
41480;SDS011;27217;51.220;5.308;2023-12-20T02:40:30;27.10;;;5.35;;
41480;SDS011;27217;51.220;5.308;2023-12-20T02:42:55;18.48;;;4.72;;
41480;SDS011;27217;51.220;5.308;2023-12-20T02:45:21;43.00;;;5.97;;
41480;SDS011;27217;51.220;5.308;2023-12-20T02:47:50;27.92;;;5.82;;
41480;SDS011;27217;51.220;5.308;2023-12-20T02:50:16;9.75;;;3.45;;
41480;SDS011;27217;51.220;5.308;2023-12-20T02:52:44;0.88;;;0.88;;
41480;SDS011;27217;51.220;5.308;2023-12-20T02:55:10;2.90;;;1.85;;
41480;SDS011;27217;51.220;5.308;2023-12-20T02:57:36;0.30;;;0.30;;
41480;SDS011;27217;51.220;5.308;2023-12-20T03:00:09;0.05;;;0.05;;
41480;SDS011;27217;51.220;5.308;2023-12-20T03:02:38;1.10;;;1.10;;
41480;SDS011;27217;51.220;5.308;2023-12-20T03:05:07;0.10;;;0.10;;
41480;SDS011;27217;51.220;5.308;2023-12-20T03:07:33;0.20;;;0.20;;
41480;SDS011;27217;51.220;5.308;2023-12-20T03:10:04;0.22;;;0.22;;
41480;SDS011;27217;51.220;5.308;2023-12-20T03:12:32;58.88;;;4.90;;
41480;SDS011;27217;51.220;5.308;2023-12-20T03:15:03;0.85;;;0.85;;
41480;SDS011;27217;51.220;5.308;2023-12-20T03:17:29;2.58;;;2.20;;
41480;SDS011;27217;51.220;5.308;2023-12-20T03:19:58;0.15;;;0.15;;
41480;SDS011;27217;51.220;5.308;2023-12-20T03:22:24;0.13;;;0.13;;
41480;SDS011;27217;51.220;5.308;2023-12-20T03:24:50;0.35;;;0.35;;
41480;SDS011;27217;51.220;5.308;2023-12-20T03:27:15;0.10;;;0.10;;
41480;SDS011;27217;51.220;5.308;2023-12-20T03:29:41;0.10;;;0.10;;
41480;SDS011;27217;51.220;5.308;2023-12-20T03:32:10;0.10;;;0.10;;
41480;SDS011;27217;51.220;5.308;2023-12-20T03:34:35;0.10;;;0.10;;
41480;SDS011;27217;51.220;5.308;2023-12-20T03:37:01;0.00;;;0.00;;
41480;SDS011;27217;51.220;5.308;2023-12-20T03:39:27;1.10;;;1.10;;
41480;SDS011;27217;51.220;5.308;2023-12-20T03:41:53;0.10;;;0.10;;
41480;SDS011;27217;51.220;5.308;2023-12-20T03:44:18;1.45;;;1.35;;
41480;SDS011;27217;51.220;5.308;2023-12-20T03:46:45;0.00;;;0.00;;
41480;SDS011;27217;51.220;5.308;2023-12-20T03:49:11;0.30;;;0.30;;
41480;SDS011;27217;51.220;5.308;2023-12-20T03:51:37;0.80;;;0.80;;
41480;SDS011;27217;51.220;5.308;2023-12-20T03:54:02;0.40;;;0.40;;
41480;SDS011;27217;51.220;5.308;2023-12-20T03:56:28;0.10;;;0.10;;
41480;SDS011;27217;51.220;5.308;2023-12-20T03:58:54;0.00;;;0.00;;
41480;SDS011;27217;51.220;5.308;2023-12-20T04:01:20;0.63;;;0.63;;
41480;SDS011;27217;51.220;5.308;2023-12-20T04:03:45;0.30;;;0.30;;
41480;SDS011;27217;51.220;5.308;2023-12-20T04:06:16;0.30;;;0.30;;
41480;SDS011;27217;51.220;5.308;2023-12-20T04:08:43;0.70;;;0.70;;
41480;SDS011;27217;51.220;5.308;2023-12-20T04:11:08;8.30;;;3.10;;
41480;SDS011;27217;51.220;5.308;2023-12-20T04:13:34;0.05;;;0.05;;
41480;SDS011;27217;51.220;5.308;2023-12-20T04:15:59;0.00;;;0.00;;
41480;SDS011;27217;51.220;5.308;2023-12-20T04:18:25;0.00;;;0.00;;
41480;SDS011;27217;51.220;5.308;2023-12-20T04:20:51;5.47;;;3.03;;
41480;SDS011;27217;51.220;5.308;2023-12-20T04:23:16;1.25;;;1.23;;
41480;SDS011;27217;51.220;5.308;2023-12-20T04:25:42;0.20;;;0.20;;
41480;SDS011;27217;51.220;5.308;2023-12-20T04:28:08;0.40;;;0.40;;
41480;SDS011;27217;51.220;5.308;2023-12-20T04:30:33;0.10;;;0.10;;
41480;SDS011;27217;51.220;5.308;2023-12-20T04:33:00;0.03;;;0.03;;
41480;SDS011;27217;51.220;5.308;2023-12-20T04:35:29;0.30;;;0.30;;
41480;SDS011;27217;51.220;5.308;2023-12-20T04:37:54;0.08;;;0.08;;
41480;SDS011;27217;51.220;5.308;2023-12-20T04:40:20;0.88;;;0.88;;
41480;SDS011;27217;51.220;5.308;2023-12-20T04:42:46;0.00;;;0.00;;
41480;SDS011;27217;51.220;5.308;2023-12-20T04:45:12;0.20;;;0.20;;
41480;SDS011;27217;51.220;5.308;2023-12-20T04:47:38;0.10;;;0.10;;
41480;SDS011;27217;51.220;5.308;2023-12-20T04:50:04;0.32;;;0.32;;
41480;SDS011;27217;51.220;5.308;2023-12-20T04:52:34;0.00;;;0.00;;
41480;SDS011;27217;51.220;5.308;2023-12-20T04:54:59;0.25;;;0.25;;
41480;SDS011;27217;51.220;5.308;2023-12-20T04:57:25;0.05;;;0.05;;
41480;SDS011;27217;51.220;5.308;2023-12-20T04:59:50;1.30;;;1.20;;
41480;SDS011;27217;51.220;5.308;2023-12-20T05:02:16;0.20;;;0.20;;
41480;SDS011;27217;51.220;5.308;2023-12-20T05:04:42;8.52;;;2.92;;
41480;SDS011;27217;51.220;5.308;2023-12-20T05:07:08;0.10;;;0.10;;
41480;SDS011;27217;51.220;5.308;2023-12-20T05:09:33;0.10;;;0.10;;
41480;SDS011;27217;51.220;5.308;2023-12-20T05:11:59;0.00;;;0.00;;
41480;SDS011;27217;51.220;5.308;2023-12-20T05:14:25;0.00;;;0.00;;
41480;SDS011;27217;51.220;5.308;2023-12-20T05:16:51;0.00;;;0.00;;
41480;SDS011;27217;51.220;5.308;2023-12-20T05:19:16;2.83;;;1.25;;
41480;SDS011;27217;51.220;5.308;2023-12-20T05:21:42;21.27;;;2.10;;
41480;SDS011;27217;51.220;5.308;2023-12-20T05:24:08;7.78;;;3.20;;
41480;SDS011;27217;51.220;5.308;2023-12-20T05:26:33;0.08;;;0.08;;
41480;SDS011;27217;51.220;5.308;2023-12-20T05:28:59;0.10;;;0.10;;
41480;SDS011;27217;51.220;5.308;2023-12-20T05:31:25;0.00;;;0.00;;
41480;SDS011;27217;51.220;5.308;2023-12-20T05:33:51;0.00;;;0.00;;
41480;SDS011;27217;51.220;5.308;2023-12-20T05:36:18;0.63;;;0.63;;
41480;SDS011;27217;51.220;5.308;2023-12-20T05:38:47;0.00;;;0.00;;
41480;SDS011;27217;51.220;5.308;2023-12-20T05:41:12;0.10;;;0.10;;
41480;SDS011;27217;51.220;5.308;2023-12-20T05:43:41;0.00;;;0.00;;
41480;SDS011;27217;51.220;5.308;2023-12-20T05:46:07;0.52;;;0.52;;
41480;SDS011;27217;51.220;5.308;2023-12-20T05:48:36;0.15;;;0.15;;
41480;SDS011;27217;51.220;5.308;2023-12-20T05:51:02;0.00;;;0.00;;
41480;SDS011;27217;51.220;5.308;2023-12-20T05:53:28;2.22;;;1.30;;
41480;SDS011;27217;51.220;5.308;2023-12-20T05:55:54;22.45;;;2.90;;
41480;SDS011;27217;51.220;5.308;2023-12-20T05:58:19;0.15;;;0.15;;
41480;SDS011;27217;51.220;5.308;2023-12-20T06:00:45;0.35;;;0.35;;
41480;SDS011;27217;51.220;5.308;2023-12-20T06:03:11;0.00;;;0.00;;
41480;SDS011;27217;51.220;5.308;2023-12-20T06:05:37;0.43;;;0.43;;
41480;SDS011;27217;51.220;5.308;2023-12-20T06:08:02;0.50;;;0.50;;
41480;SDS011;27217;51.220;5.308;2023-12-20T06:10:29;0.00;;;0.00;;
41480;SDS011;27217;51.220;5.308;2023-12-20T06:12:54;3.50;;;0.57;;
41480;SDS011;27217;51.220;5.308;2023-12-20T06:15:21;0.00;;;0.00;;
41480;SDS011;27217;51.220;5.308;2023-12-20T06:17:47;0.00;;;0.00;;
41480;SDS011;27217;51.220;5.308;2023-12-20T06:20:12;0.00;;;0.00;;
41480;SDS011;27217;51.220;5.308;2023-12-20T06:22:41;1.35;;;1.25;;
41480;SDS011;27217;51.220;5.308;2023-12-20T06:25:07;1.77;;;0.68;;
41480;SDS011;27217;51.220;5.308;2023-12-20T06:27:36;0.00;;;0.00;;
41480;SDS011;27217;51.220;5.308;2023-12-20T06:30:01;0.75;;;0.70;;
41480;SDS011;27217;51.220;5.308;2023-12-20T06:32:30;5.20;;;2.83;;
41480;SDS011;27217;51.220;5.308;2023-12-20T06:34:56;0.10;;;0.10;;
41480;SDS011;27217;51.220;5.308;2023-12-20T06:37:22;0.10;;;0.10;;
41480;SDS011;27217;51.220;5.308;2023-12-20T06:39:48;0.15;;;0.15;;
41480;SDS011;27217;51.220;5.308;2023-12-20T06:42:13;0.10;;;0.10;;
41480;SDS011;27217;51.220;5.308;2023-12-20T06:44:39;0.15;;;0.15;;
41480;SDS011;27217;51.220;5.308;2023-12-20T06:47:08;0.00;;;0.00;;
41480;SDS011;27217;51.220;5.308;2023-12-20T06:49:34;1.02;;;0.35;;
41480;SDS011;27217;51.220;5.308;2023-12-20T06:51:59;0.10;;;0.10;;
41480;SDS011;27217;51.220;5.308;2023-12-20T06:54:25;0.15;;;0.15;;
41480;SDS011;27217;51.220;5.308;2023-12-20T06:57:00;0.65;;;0.55;;
41480;SDS011;27217;51.220;5.308;2023-12-20T06:59:42;6.22;;;0.95;;
41480;SDS011;27217;51.220;5.308;2023-12-20T07:05:31;0.10;;;0.10;;
41480;SDS011;27217;51.220;5.308;2023-12-20T07:07:58;0.00;;;0.00;;
41480;SDS011;27217;51.220;5.308;2023-12-20T07:10:23;0.47;;;0.47;;
41480;SDS011;27217;51.220;5.308;2023-12-20T07:12:51;0.05;;;0.05;;
41480;SDS011;27217;51.220;5.308;2023-12-20T07:15:21;4.15;;;1.85;;
41480;SDS011;27217;51.220;5.308;2023-12-20T07:17:49;6.22;;;1.83;;
41480;SDS011;27217;51.220;5.308;2023-12-20T07:20:15;0.00;;;0.00;;
41480;SDS011;27217;51.220;5.308;2023-12-20T07:22:41;0.10;;;0.10;;
41480;SDS011;27217;51.220;5.308;2023-12-20T07:25:07;34.63;;;1.10;;
41480;SDS011;27217;51.220;5.308;2023-12-20T07:27:33;0.10;;;0.10;;
41480;SDS011;27217;51.220;5.308;2023-12-20T07:29:58;1.08;;;0.80;;
41480;SDS011;27217;51.220;5.308;2023-12-20T07:32:24;0.20;;;0.20;;
41480;SDS011;27217;51.220;5.308;2023-12-20T07:34:50;0.00;;;0.00;;
41480;SDS011;27217;51.220;5.308;2023-12-20T07:37:16;0.55;;;0.47;;
41480;SDS011;27217;51.220;5.308;2023-12-20T07:39:41;0.10;;;0.10;;
41480;SDS011;27217;51.220;5.308;2023-12-20T07:42:08;0.20;;;0.20;;
41480;SDS011;27217;51.220;5.308;2023-12-20T07:44:34;0.22;;;0.22;;
41480;SDS011;27217;51.220;5.308;2023-12-20T07:47:03;1.27;;;1.17;;
41480;SDS011;27217;51.220;5.308;2023-12-20T07:49:30;19.35;;;3.67;;
41480;SDS011;27217;51.220;5.308;2023-12-20T07:51:56;22.05;;;4.78;;
41480;SDS011;27217;51.220;5.308;2023-12-20T07:54:21;42.25;;;4.90;;
41480;SDS011;27217;51.220;5.308;2023-12-20T07:56:50;30.60;;;4.65;;
41480;SDS011;27217;51.220;5.308;2023-12-20T07:59:16;28.98;;;5.97;;
41480;SDS011;27217;51.220;5.308;2023-12-20T08:01:41;26.33;;;4.90;;
41480;SDS011;27217;51.220;5.308;2023-12-20T08:04:07;25.10;;;4.50;;
41480;SDS011;27217;51.220;5.308;2023-12-20T08:06:33;33.33;;;4.10;;
41480;SDS011;27217;51.220;5.308;2023-12-20T08:08:59;23.08;;;4.10;;
41480;SDS011;27217;51.220;5.308;2023-12-20T08:11:25;23.17;;;3.55;;
41480;SDS011;27217;51.220;5.308;2023-12-20T08:13:51;28.90;;;4.63;;
41480;SDS011;27217;51.220;5.308;2023-12-20T08:16:16;16.42;;;3.25;;
41480;SDS011;27217;51.220;5.308;2023-12-20T08:18:42;10.95;;;2.83;;
41480;SDS011;27217;51.220;5.308;2023-12-20T08:21:09;13.32;;;3.78;;
41480;SDS011;27217;51.220;5.308;2023-12-20T08:23:34;29.30;;;4.78;;
41480;SDS011;27217;51.220;5.308;2023-12-20T08:26:05;23.40;;;4.03;;
41480;SDS011;27217;51.220;5.308;2023-12-20T08:28:31;27.98;;;3.55;;
41480;SDS011;27217;51.220;5.308;2023-12-20T08:30:57;36.92;;;4.30;;
41480;SDS011;27217;51.220;5.308;2023-12-20T08:33:22;27.65;;;3.83;;
41480;SDS011;27217;51.220;5.308;2023-12-20T08:35:51;18.58;;;3.55;;
41480;SDS011;27217;51.220;5.308;2023-12-20T08:38:17;20.45;;;4.13;;
41480;SDS011;27217;51.220;5.308;2023-12-20T08:40:45;23.33;;;3.55;;
41480;SDS011;27217;51.220;5.308;2023-12-20T08:43:11;22.13;;;3.40;;
41480;SDS011;27217;51.220;5.308;2023-12-20T08:45:37;30.60;;;5.25;;
41480;SDS011;27217;51.220;5.308;2023-12-20T08:48:06;21.25;;;3.55;;
41480;SDS011;27217;51.220;5.308;2023-12-20T08:50:32;18.83;;;3.03;;
41480;SDS011;27217;51.220;5.308;2023-12-20T08:52:58;27.95;;;4.18;;
41480;SDS011;27217;51.220;5.308;2023-12-20T08:55:23;26.00;;;3.58;;
41480;SDS011;27217;51.220;5.308;2023-12-20T08:57:53;16.17;;;3.35;;
41480;SDS011;27217;51.220;5.308;2023-12-20T09:00:19;13.02;;;2.95;;
41480;SDS011;27217;51.220;5.308;2023-12-20T09:02:45;17.85;;;2.97;;
41480;SDS011;27217;51.220;5.308;2023-12-20T09:05:11;15.65;;;3.00;;
41480;SDS011;27217;51.220;5.308;2023-12-20T09:07:38;25.13;;;4.72;;
41480;SDS011;27217;51.220;5.308;2023-12-20T09:10:11;26.43;;;4.40;;
41480;SDS011;27217;51.220;5.308;2023-12-20T09:12:37;16.67;;;2.97;;
41480;SDS011;27217;51.220;5.308;2023-12-20T09:15:05;24.48;;;3.22;;
41480;SDS011;27217;51.220;5.308;2023-12-20T09:17:30;23.75;;;3.55;;
41480;SDS011;27217;51.220;5.308;2023-12-20T09:19:56;26.77;;;3.47;;
41480;SDS011;27217;51.220;5.308;2023-12-20T09:22:22;17.30;;;3.92;;
41480;SDS011;27217;51.220;5.308;2023-12-20T09:24:48;23.48;;;3.63;;
41480;SDS011;27217;51.220;5.308;2023-12-20T09:27:14;10.63;;;2.80;;
41480;SDS011;27217;51.220;5.308;2023-12-20T09:29:39;23.55;;;2.60;;
41480;SDS011;27217;51.220;5.308;2023-12-20T09:32:05;14.85;;;2.72;;
41480;SDS011;27217;51.220;5.308;2023-12-20T09:34:31;18.10;;;2.58;;
41480;SDS011;27217;51.220;5.308;2023-12-20T09:36:57;22.42;;;3.00;;
41480;SDS011;27217;51.220;5.308;2023-12-20T09:39:23;23.88;;;4.57;;
41480;SDS011;27217;51.220;5.308;2023-12-20T09:42:07;14.10;;;2.67;;
41480;SDS011;27217;51.220;5.308;2023-12-20T09:44:33;13.63;;;2.30;;
41480;SDS011;27217;51.220;5.308;2023-12-20T09:47:05;21.35;;;3.75;;
41480;SDS011;27217;51.220;5.308;2023-12-20T09:49:32;23.00;;;3.90;;
41480;SDS011;27217;51.220;5.308;2023-12-20T09:51:58;22.25;;;4.57;;
41480;SDS011;27217;51.220;5.308;2023-12-20T09:54:26;31.98;;;4.30;;
41480;SDS011;27217;51.220;5.308;2023-12-20T09:56:53;22.60;;;3.25;;
41480;SDS011;27217;51.220;5.308;2023-12-20T09:59:19;17.15;;;4.38;;
41480;SDS011;27217;51.220;5.308;2023-12-20T10:01:47;18.33;;;3.00;;
41480;SDS011;27217;51.220;5.308;2023-12-20T10:04:16;16.00;;;2.40;;
41480;SDS011;27217;51.220;5.308;2023-12-20T10:06:42;17.27;;;2.50;;
41480;SDS011;27217;51.220;5.308;2023-12-20T10:09:09;15.70;;;3.80;;
41480;SDS011;27217;51.220;5.308;2023-12-20T10:11:36;23.13;;;3.53;;
41480;SDS011;27217;51.220;5.308;2023-12-20T10:14:03;30.83;;;4.40;;
41480;SDS011;27217;51.220;5.308;2023-12-20T10:16:32;25.92;;;3.22;;
41480;SDS011;27217;51.220;5.308;2023-12-20T10:18:59;17.88;;;3.38;;
41480;SDS011;27217;51.220;5.308;2023-12-20T10:21:26;13.00;;;2.53;;
41480;SDS011;27217;51.220;5.308;2023-12-20T10:23:56;20.85;;;4.05;;
41480;SDS011;27217;51.220;5.308;2023-12-20T10:26:23;28.13;;;6.38;;
41480;SDS011;27217;51.220;5.308;2023-12-20T10:29:01;18.60;;;3.25;;
41480;SDS011;27217;51.220;5.308;2023-12-20T10:31:30;20.05;;;4.22;;
41480;SDS011;27217;51.220;5.308;2023-12-20T10:34:00;15.95;;;4.30;;
41480;SDS011;27217;51.220;5.308;2023-12-20T10:36:27;18.20;;;3.40;;
41480;SDS011;27217;51.220;5.308;2023-12-20T10:38:57;25.67;;;3.97;;
41480;SDS011;27217;51.220;5.308;2023-12-20T10:41:32;17.13;;;3.53;;
41480;SDS011;27217;51.220;5.308;2023-12-20T10:43:59;22.77;;;4.05;;
41480;SDS011;27217;51.220;5.308;2023-12-20T10:46:27;12.60;;;3.17;;
41480;SDS011;27217;51.220;5.308;2023-12-20T10:48:58;19.15;;;3.92;;
41480;SDS011;27217;51.220;5.308;2023-12-20T10:51:27;17.17;;;3.30;;
41480;SDS011;27217;51.220;5.308;2023-12-20T10:53:55;22.85;;;3.30;;
41480;SDS011;27217;51.220;5.308;2023-12-20T10:56:21;20.83;;;3.55;;
41480;SDS011;27217;51.220;5.308;2023-12-20T10:58:49;25.15;;;3.95;;
41480;SDS011;27217;51.220;5.308;2023-12-20T11:01:16;25.17;;;4.22;;
41480;SDS011;27217;51.220;5.308;2023-12-20T11:03:52;19.20;;;3.65;;
41480;SDS011;27217;51.220;5.308;2023-12-20T11:09:25;18.52;;;2.90;;
41480;SDS011;27217;51.220;5.308;2023-12-20T11:14:45;15.65;;;2.92;;
41480;SDS011;27217;51.220;5.308;2023-12-20T11:17:16;19.67;;;3.58;;
41480;SDS011;27217;51.220;5.308;2023-12-20T11:22:26;22.38;;;3.30;;
41480;SDS011;27217;51.220;5.308;2023-12-20T11:24:59;26.00;;;3.10;;
41480;SDS011;27217;51.220;5.308;2023-12-20T11:27:31;13.07;;;2.83;;
41480;SDS011;27217;51.220;5.308;2023-12-20T11:29:58;16.95;;;3.42;;
41480;SDS011;27217;51.220;5.308;2023-12-20T11:37:28;22.85;;;3.45;;
41480;SDS011;27217;51.220;5.308;2023-12-20T11:40:05;17.70;;;3.03;;
41480;SDS011;27217;51.220;5.308;2023-12-20T11:42:32;19.88;;;3.15;;
41480;SDS011;27217;51.220;5.308;2023-12-20T11:44:59;24.50;;;3.65;;
41480;SDS011;27217;51.220;5.308;2023-12-20T11:47:28;17.70;;;3.20;;
41480;SDS011;27217;51.220;5.308;2023-12-20T11:49:56;18.83;;;4.05;;
41480;SDS011;27217;51.220;5.308;2023-12-20T11:52:22;22.52;;;3.78;;
41480;SDS011;27217;51.220;5.308;2023-12-20T11:54:48;25.15;;;3.03;;
41480;SDS011;27217;51.220;5.308;2023-12-20T11:57:13;23.30;;;3.95;;
41480;SDS011;27217;51.220;5.308;2023-12-20T11:59:39;18.02;;;3.53;;
41480;SDS011;27217;51.220;5.308;2023-12-20T12:02:05;15.73;;;3.30;;
41480;SDS011;27217;51.220;5.308;2023-12-20T12:04:31;18.55;;;3.58;;
41480;SDS011;27217;51.220;5.308;2023-12-20T12:06:57;24.65;;;4.50;;
41480;SDS011;27217;51.220;5.308;2023-12-20T12:09:25;25.98;;;3.88;;
41480;SDS011;27217;51.220;5.308;2023-12-20T12:11:54;17.40;;;3.75;;
41480;SDS011;27217;51.220;5.308;2023-12-20T12:14:20;26.15;;;5.05;;
41480;SDS011;27217;51.220;5.308;2023-12-20T12:16:46;25.70;;;4.45;;
41480;SDS011;27217;51.220;5.308;2023-12-20T12:19:21;20.58;;;4.15;;
41480;SDS011;27217;51.220;5.308;2023-12-20T12:21:48;29.83;;;5.47;;
41480;SDS011;27217;51.220;5.308;2023-12-20T12:24:45;15.88;;;3.00;;
41480;SDS011;27217;51.220;5.308;2023-12-20T12:27:15;23.65;;;5.38;;
41480;SDS011;27217;51.220;5.308;2023-12-20T12:29:41;20.75;;;3.90;;
41480;SDS011;27217;51.220;5.308;2023-12-20T12:32:25;19.08;;;4.47;;
41480;SDS011;27217;51.220;5.308;2023-12-20T12:34:53;22.95;;;4.80;;
41480;SDS011;27217;51.220;5.308;2023-12-20T12:37:19;15.45;;;3.67;;
41480;SDS011;27217;51.220;5.308;2023-12-20T12:39:46;26.73;;;4.50;;
41480;SDS011;27217;51.220;5.308;2023-12-20T12:42:13;27.95;;;5.00;;
41480;SDS011;27217;51.220;5.308;2023-12-20T12:44:39;20.60;;;4.18;;
41480;SDS011;27217;51.220;5.308;2023-12-20T12:47:05;23.38;;;5.00;;
41480;SDS011;27217;51.220;5.308;2023-12-20T12:49:31;25.25;;;4.60;;
41480;SDS011;27217;51.220;5.308;2023-12-20T12:51:57;20.27;;;4.47;;
41480;SDS011;27217;51.220;5.308;2023-12-20T12:54:23;17.83;;;4.47;;
41480;SDS011;27217;51.220;5.308;2023-12-20T12:56:49;19.30;;;5.18;;
41480;SDS011;27217;51.220;5.308;2023-12-20T12:59:16;26.85;;;6.10;;
41480;SDS011;27217;51.220;5.308;2023-12-20T13:01:42;28.23;;;5.40;;
41480;SDS011;27217;51.220;5.308;2023-12-20T13:04:07;28.42;;;5.35;;
41480;SDS011;27217;51.220;5.308;2023-12-20T13:06:36;24.40;;;4.60;;
41480;SDS011;27217;51.220;5.308;2023-12-20T13:09:03;38.17;;;7.47;;
41480;SDS011;27217;51.220;5.308;2023-12-20T13:14:00;15.32;;;4.22;;
41480;SDS011;27217;51.220;5.308;2023-12-20T13:16:27;22.90;;;5.72;;
41480;SDS011;27217;51.220;5.308;2023-12-20T13:18:53;25.15;;;5.35;;
41480;SDS011;27217;51.220;5.308;2023-12-20T13:21:18;22.38;;;5.72;;
41480;SDS011;27217;51.220;5.308;2023-12-20T13:23:44;23.50;;;5.30;;
41480;SDS011;27217;51.220;5.308;2023-12-20T13:26:10;17.38;;;4.72;;
41480;SDS011;27217;51.220;5.308;2023-12-20T13:28:36;25.55;;;4.30;;
41480;SDS011;27217;51.220;5.308;2023-12-20T13:31:04;27.55;;;3.83;;
41480;SDS011;27217;51.220;5.308;2023-12-20T13:33:29;24.88;;;5.60;;
41480;SDS011;27217;51.220;5.308;2023-12-20T13:35:55;26.05;;;5.40;;
41480;SDS011;27217;51.220;5.308;2023-12-20T13:38:23;22.75;;;3.78;;
41480;SDS011;27217;51.220;5.308;2023-12-20T13:40:49;25.83;;;4.70;;
41480;SDS011;27217;51.220;5.308;2023-12-20T13:43:14;16.08;;;3.85;;
41480;SDS011;27217;51.220;5.308;2023-12-20T13:45:45;22.13;;;3.95;;
41480;SDS011;27217;51.220;5.308;2023-12-20T13:48:14;23.23;;;4.18;;
41480;SDS011;27217;51.220;5.308;2023-12-20T13:50:57;28.33;;;4.40;;
41480;SDS011;27217;51.220;5.308;2023-12-20T13:53:23;18.13;;;4.60;;
41480;SDS011;27217;51.220;5.308;2023-12-20T13:55:49;26.90;;;4.45;;
41480;SDS011;27217;51.220;5.308;2023-12-20T13:58:14;25.35;;;4.03;;
41480;SDS011;27217;51.220;5.308;2023-12-20T14:00:43;21.10;;;4.82;;
41480;SDS011;27217;51.220;5.308;2023-12-20T14:03:09;17.25;;;3.97;;
41480;SDS011;27217;51.220;5.308;2023-12-20T14:05:35;21.20;;;4.28;;
41480;SDS011;27217;51.220;5.308;2023-12-20T14:08:00;23.67;;;4.25;;
41480;SDS011;27217;51.220;5.308;2023-12-20T14:10:26;18.40;;;4.20;;
41480;SDS011;27217;51.220;5.308;2023-12-20T14:12:53;11.45;;;2.95;;
41480;SDS011;27217;51.220;5.308;2023-12-20T14:15:19;17.42;;;3.95;;
41480;SDS011;27217;51.220;5.308;2023-12-20T14:17:44;16.90;;;3.92;;
41480;SDS011;27217;51.220;5.308;2023-12-20T14:20:10;30.73;;;4.05;;
41480;SDS011;27217;51.220;5.308;2023-12-20T14:22:39;20.45;;;4.45;;
41480;SDS011;27217;51.220;5.308;2023-12-20T14:25:12;24.00;;;5.70;;
41480;SDS011;27217;51.220;5.308;2023-12-20T14:27:39;18.58;;;4.03;;
41480;SDS011;27217;51.220;5.308;2023-12-20T14:30:05;19.20;;;3.35;;
41480;SDS011;27217;51.220;5.308;2023-12-20T14:32:34;13.50;;;3.20;;
41480;SDS011;27217;51.220;5.308;2023-12-20T14:35:01;20.65;;;4.72;;
41480;SDS011;27217;51.220;5.308;2023-12-20T14:37:29;27.60;;;4.28;;
41480;SDS011;27217;51.220;5.308;2023-12-20T14:39:55;25.38;;;3.38;;
41480;SDS011;27217;51.220;5.308;2023-12-20T14:42:21;27.60;;;4.18;;
41480;SDS011;27217;51.220;5.308;2023-12-20T14:44:47;17.40;;;4.93;;
41480;SDS011;27217;51.220;5.308;2023-12-20T14:47:17;24.88;;;3.80;;
41480;SDS011;27217;51.220;5.308;2023-12-20T14:49:43;14.10;;;2.90;;
41480;SDS011;27217;51.220;5.308;2023-12-20T14:52:12;21.15;;;3.83;;
41480;SDS011;27217;51.220;5.308;2023-12-20T14:54:38;13.38;;;2.78;;
41480;SDS011;27217;51.220;5.308;2023-12-20T14:57:04;15.88;;;3.75;;
41480;SDS011;27217;51.220;5.308;2023-12-20T14:59:30;21.10;;;3.97;;